FDF weather

Martinique Aimé Césaire International Airport
Fort-de-France, Martinique

Public forecast

Using degrees Celsius for public forecast. Weather courtesy of forecast.io.

METAR (pilot weather report)

Retrieved 2019/07/21 10:30 UTC (0 seconds ago):

TFFF 211030Z AUTO 00000KT 9999 FEW029 25/23 Q1014 TEMPO 4000 -SHRA BKN015TCU BECMG 08016KT

TAF (pilot weather forecast)

Retrieved 2019/07/21 06:16 UTC (4 hours ago):

TAF TFFF 210400Z 2106/2206 08006KT 9999 SCT030 PROB40 TEMPO 2106/2112 4000 -SHRA BKN015TCU BECMG 2110/2112 08016KT PROB40 TEMPO 2200/2206 4000 -SHRA BKN015TCU